Time;durP1;ratioP1;P1;durP2;ratioP2;P2;SDS_P1;SDS_P2;PMS_P1;PMS_P2;Temp;Humidity;BMP_temperature;BMP_pressure;BME280_temperature;BME280_humidity;BME280_pressure;Samples;Min_cycle;Max_cycle;Signal;HPM_P1;HPM_P2
2024/04/17 00:01:57;;;;;;;6.80;6.20;;;;;;;7.13;100.00;99227.88;5414843;26;20262;-75
2024/04/17 00:04:25;;;;;;;6.93;6.33;;;;;;;7.22;100.00;99213.84;5414628;26;21010;-76
2024/04/17 00:06:51;;;;;;;6.77;6.27;;;;;;;7.12;100.00;99210.63;5415249;26;20234;-74
2024/04/17 00:09:19;;;;;;;6.93;6.30;;;;;;;7.10;100.00;99202.03;5415331;26;20237;-76
2024/04/17 00:11:44;;;;;;;7.50;6.87;;;;;;;6.96;100.00;99203.22;5414819;26;20233;-76
2024/04/17 00:14:14;;;;;;;7.07;6.40;;;;;;;6.97;100.00;99191.94;5414136;26;20681;-76
2024/04/17 00:16:42;;;;;;;7.03;6.53;;;;;;;7.15;100.00;99187.19;5415586;26;20283;-76
2024/04/17 00:19:10;;;;;;;7.90;7.20;;;;;;;7.01;100.00;99182.34;5416445;26;20236;-76
2024/04/17 00:21:35;;;;;;;7.37;6.77;;;;;;;7.02;100.00;99189.25;5415558;26;20229;-76
2024/04/17 00:24:03;;;;;;;6.57;5.97;;;;;;;7.08;100.00;99204.66;5413834;26;20276;-75
2024/04/17 00:26:29;;;;;;;7.33;6.73;;;;;;;7.07;100.00;99199.50;5414495;26;20345;-76
2024/04/17 00:28:56;;;;;;;6.90;6.40;;;;;;;7.01;100.00;99204.84;5414693;26;20239;-76
2024/04/17 00:31:22;;;;;;;7.40;6.80;;;;;;;6.98;100.00;99203.19;5414722;26;20273;-75
2024/04/17 00:33:53;;;;;;;7.83;7.23;;;;;;;7.05;100.00;99198.69;5414121;26;20232;-75
2024/04/17 00:36:18;;;;;;;9.17;6.47;;;;;;;6.88;100.00;99199.13;5415240;26;20683;-76
2024/04/17 00:38:46;;;;;;;7.37;6.67;;;;;;;6.93;100.00;99203.28;5413054;26;20341;-75
2024/04/17 00:41:12;;;;;;;7.83;7.17;;;;;;;7.00;100.00;99201.41;5415557;26;20229;-76
2024/04/17 00:43:40;;;;;;;6.73;6.17;;;;;;;7.22;100.00;99199.13;5415308;26;20321;-76
2024/04/17 00:46:10;;;;;;;7.23;6.63;;;;;;;7.32;100.00;99207.53;5414842;26;20234;-75
2024/04/17 00:48:38;;;;;;;7.77;7.07;;;;;;;7.29;100.00;99218.81;5415059;26;20287;-76
2024/04/17 00:51:07;;;;;;;7.67;7.07;;;;;;;7.29;100.00;99224.00;5413942;26;20232;-76
2024/04/17 00:53:37;;;;;;;6.87;6.13;;;;;;;7.52;100.00;99232.97;5413220;26;20280;-76
2024/04/17 00:56:03;;;;;;;6.80;6.23;;;;;;;7.54;100.00;99239.81;5414943;26;20257;-76
2024/04/17 00:58:33;;;;;;;6.90;6.30;;;;;;;7.38;100.00;99255.84;5414170;26;20228;-77
2024/04/17 01:00:58;;;;;;;6.53;5.87;;;;;;;7.58;100.00;99273.53;5414677;26;20275;-76
2024/04/17 01:03:26;;;;;;;6.80;6.20;;;;;;;7.15;100.00;99289.25;5415044;26;20236;-76
2024/04/17 01:05:52;;;;;;;7.13;6.43;;;;;;;7.28;100.00;99284.63;5414057;26;20268;-76
2024/04/17 01:08:22;;;;;;;7.83;6.43;;;;;;;7.01;100.00;99280.94;5413577;26;20290;-76
2024/04/17 01:10:57;;;;;;;6.37;5.70;;;;;;;6.88;100.00;99272.59;5413624;26;20366;-76
2024/04/17 01:13:25;;;;;;;6.63;6.10;;;;;;;6.94;100.00;99259.47;5414519;26;20324;-76
2024/04/17 01:15:51;;;;;;;6.57;5.93;;;;;;;6.95;100.00;99243.00;5413564;26;20236;-76
2024/04/17 01:18:21;;;;;;;6.87;6.13;;;;;;;6.88;100.00;99244.06;5415610;26;20262;-77
2024/04/17 01:20:47;;;;;;;7.43;5.93;;;;;;;6.94;100.00;99233.53;5415069;26;20731;-75
2024/04/17 01:23:15;;;;;;;8.90;5.77;;;;;;;6.89;100.00;99231.94;5412656;26;20262;-76
2024/04/17 01:25:43;;;;;;;5.93;5.43;;;;;;;7.01;100.00;99223.84;5414209;26;20263;-76
2024/04/17 01:28:11;;;;;;;6.73;6.13;;;;;;;7.08;100.00;99234.94;5414287;26;20232;-76
2024/04/17 01:30:37;;;;;;;6.03;5.40;;;;;;;7.02;100.00;99238.53;5413710;26;20243;-76
2024/04/17 01:33:05;;;;;;;5.40;4.90;;;;;;;6.94;100.00;99243.91;5413769;26;20836;-76
2024/04/17 01:35:30;;;;;;;6.37;5.37;;;;;;;6.89;100.00;99237.97;5414583;26;20228;-76
2024/04/17 01:37:58;;;;;;;10.37;5.63;;;;;;;6.96;100.00;99226.56;5412923;26;20234;-75
2024/04/17 01:40:24;;;;;;;6.93;4.87;;;;;;;6.73;100.00;99221.91;5413897;26;20291;-76
2024/04/17 01:42:54;;;;;;;6.67;5.20;;;;;;;6.86;100.00;99212.13;5414730;26;20236;-75
2024/04/17 01:45:20;;;;;;;6.17;5.57;;;;;;;6.80;100.00;99198.41;5414001;26;20229;-76
2024/04/17 01:47:48;;;;;;;6.10;4.80;;;;;;;7.07;100.00;99194.31;5413666;26;20274;-76
2024/04/17 01:50:24;;;;;;;6.13;5.40;;;;;;;6.95;100.00;99205.84;5413166;26;20233;-76
2024/04/17 01:52:52;;;;;;;7.03;5.37;;;;;;;7.03;100.00;99197.88;5413684;26;20239;-75
2024/04/17 01:55:18;;;;;;;6.70;5.40;;;;;;;6.69;100.00;99204.72;5413012;26;20229;-76
2024/04/17 01:57:46;;;;;;;6.70;5.30;;;;;;;6.75;100.00;99195.94;5414218;26;20835;-76
2024/04/17 02:00:15;;;;;;;5.93;5.33;;;;;;;6.76;100.00;99213.22;5413651;26;20286;-75
2024/04/17 02:02:42;;;;;;;10.53;5.13;;;;;;;6.84;100.00;99208.69;5413520;26;20268;-75
2024/04/17 02:05:08;;;;;;;13.20;5.47;;;;;;;6.64;100.00;99211.75;5412603;26;20258;-76
2024/04/17 02:07:36;;;;;;;6.93;5.17;;;;;;;6.57;100.00;99211.03;5413892;26;20236;-76
2024/04/17 02:10:02;;;;;;;12.47;4.93;;;;;;;6.63;100.00;99196.22;5413237;26;20241;-76
2024/04/17 02:12:31;;;;;;;6.13;5.37;;;;;;;6.59;100.00;99194.59;5413919;26;20241;-75
2024/04/17 02:14:57;;;;;;;14.57;5.90;;;;;;;6.66;100.00;99190.97;5412865;26;20786;-76
2024/04/17 02:17:27;;;;;;;7.73;5.40;;;;;;;6.69;100.00;99194.34;5413150;26;20233;-76
2024/04/17 02:19:53;;;;;;;6.67;5.43;;;;;;;6.58;100.00;99191.16;5413905;26;20232;-76
2024/04/17 02:22:21;;;;;;;8.87;5.33;;;;;;;6.61;100.00;99193.66;5412819;26;20278;-75
2024/04/17 02:24:46;;;;;;;7.00;5.43;;;;;;;6.56;100.00;99188.59;5412096;26;20228;-76
2024/04/17 02:27:14;;;;;;;9.77;5.97;;;;;;;6.67;100.00;99188.34;5413675;26;20263;-75
2024/04/17 02:29:39;;;;;;;10.13;5.63;;;;;;;6.67;100.00;99185.75;5413476;26;20615;-76
2024/04/17 02:32:08;;;;;;;6.77;6.10;;;;;;;6.55;100.00;99196.41;5413423;26;20232;-76
2024/04/17 02:34:36;;;;;;;9.33;5.27;;;;;;;6.55;100.00;99186.03;5413455;26;20275;-76
2024/04/17 02:37:04;;;;;;;9.50;5.80;;;;;;;6.62;100.00;99200.56;5412939;26;20248;-76
2024/04/17 02:39:29;;;;;;;8.23;5.27;;;;;;;6.41;100.00;99208.81;5412745;26;20286;-76
2024/04/17 02:41:57;;;;;;;5.53;4.87;;;;;;;6.29;100.00;99192.66;5413241;26;20240;-76
2024/04/17 02:44:23;;;;;;;7.07;5.40;;;;;;;6.31;100.00;99197.81;5414066;26;20258;-76
2024/04/17 02:46:51;;;;;;;13.00;5.50;;;;;;;6.24;100.00;99193.63;5412363;26;20824;-76
2024/04/17 02:49:16;;;;;;;6.50;5.17;;;;;;;6.16;100.00;99192.06;5413700;26;20286;-76
2024/04/17 02:51:48;;;;;;;9.27;5.03;;;;;;;6.23;100.00;99194.53;5413650;26;20235;-75
2024/04/17 02:54:13;;;;;;;5.83;4.97;;;;;;;6.12;100.00;99198.16;5412446;26;20356;-76
2024/04/17 02:56:41;;;;;;;11.83;5.10;;;;;;;5.96;100.00;99200.22;5412683;26;20741;-76
2024/04/17 02:59:06;;;;;;;10.43;5.03;;;;;;;5.96;100.00;99202.81;5411852;26;20617;-75
2024/04/17 03:01:34;;;;;;;9.47;5.00;;;;;;;5.83;100.00;99211.69;5412641;26;20229;-76
2024/04/17 03:04:00;;;;;;;6.83;4.10;;;;;;;5.79;100.00;99212.66;5412639;26;20627;-76
2024/04/17 03:06:28;;;;;;;8.80;3.83;;;;;;;5.88;100.00;99216.78;5413884;26;20286;-76
2024/04/17 03:08:56;;;;;;;11.57;4.23;;;;;;;5.71;100.00;99243.84;5410854;26;20266;-75
2024/04/17 03:11:24;;;;;;;7.37;3.97;;;;;;;5.93;100.00;99240.88;5400488;26;20223;-76
2024/04/17 03:13:50;;;;;;;10.17;3.73;;;;;;;5.83;100.00;99241.91;5415081;26;20244;-75
2024/04/17 03:16:18;;;;;;;10.67;3.63;;;;;;;5.91;100.00;99253.00;5414389;26;20678;-75
2024/04/17 03:18:43;;;;;;;5.67;3.80;;;;;;;5.97;100.00;99261.53;5413954;26;20269;-76
2024/04/17 03:21:11;;;;;;;10.27;3.33;;;;;;;5.77;100.00;99292.09;5414237;26;20237;-76
2024/04/17 03:23:37;;;;;;;7.83;3.20;;;;;;;5.81;100.00;99285.09;5412603;26;20228;-75
2024/04/17 03:26:07;;;;;;;5.43;2.87;;;;;;;5.77;100.00;99297.28;5415132;26;20273;-75
2024/04/17 03:28:33;;;;;;;9.30;3.40;;;;;;;5.98;100.00;99301.22;5412999;26;20232;-75
2024/04/17 03:31:01;;;;;;;7.23;3.20;;;;;;;5.92;100.00;99314.25;5413784;26;20737;-76
2024/04/17 03:33:27;;;;;;;5.47;3.33;;;;;;;5.91;100.00;99323.75;5411945;26;20232;-76
2024/04/17 03:35:56;;;;;;;7.53;3.57;;;;;;;5.92;100.00;99337.56;5413047;26;20798;-76
2024/04/17 03:38:24;;;;;;;13.97;3.83;;;;;;;5.85;100.00;99331.66;5397775;26;20333;-76
2024/04/17 03:40:53;;;;;;;5.30;3.30;;;;;;;5.74;100.00;99329.22;5413166;26;20230;-76
2024/04/17 03:43:23;;;;;;;4.53;2.93;;;;;;;5.81;100.00;99334.28;5411905;26;20737;-76
2024/04/17 03:45:51;;;;;;;8.47;3.07;;;;;;;5.89;100.00;99333.28;5412484;26;20228;-75
2024/04/17 03:48:19;;;;;;;7.17;3.47;;;;;;;5.82;100.00;99346.38;5412856;26;20242;-76
2024/04/17 03:50:45;;;;;;;7.33;2.73;;;;;;;5.87;100.00;99355.78;5412158;26;20234;-74
2024/04/17 03:53:13;;;;;;;6.43;3.13;;;;;;;5.78;100.00;99368.88;5412742;26;20280;-75
2024/04/17 03:55:38;;;;;;;13.50;3.20;;;;;;;5.75;100.00;99362.03;5411688;26;20262;-76
2024/04/17 03:58:06;;;;;;;7.53;3.70;;;;;;;5.81;100.00;99365.38;5411600;26;20233;-75
2024/04/17 04:00:34;;;;;;;4.63;2.33;;;;;;;5.81;100.00;99376.59;5411892;26;20240;-76
2024/04/17 04:03:02;;;;;;;7.40;2.83;;;;;;;6.07;100.00;99389.13;5412809;26;20271;-76
2024/04/17 04:05:28;;;;;;;6.90;2.33;;;;;;;5.82;100.00;99406.78;5413419;26;20227;-76
2024/04/17 04:07:56;;;;;;;4.60;2.60;;;;;;;5.79;100.00;99401.66;5413535;26;20235;-75
2024/04/17 04:10:21;;;;;;;10.17;3.23;;;;;;;5.74;100.00;99411.22;5415090;26;20573;-76
2024/04/17 04:12:50;;;;;;;3.97;2.67;;;;;;;5.76;100.00;99407.72;5416329;26;20235;-76
2024/04/17 04:15:15;;;;;;;8.13;2.80;;;;;;;5.74;100.00;99404.31;5415992;26;20586;-77
2024/04/17 04:17:47;;;;;;;4.53;2.63;;;;;;;5.80;100.00;99405.09;5415475;26;20278;-76
2024/04/17 04:20:12;;;;;;;7.80;2.73;;;;;;;5.80;100.00;99413.72;5415054;26;20236;-77
2024/04/17 04:22:40;;;;;;;6.17;2.97;;;;;;;5.94;99.40;99427.28;5414795;26;20274;-74
2024/04/17 04:25:06;;;;;;;6.37;2.30;;;;;;;5.71;100.00;99427.69;5415069;26;20262;-76
2024/04/17 04:27:34;;;;;;;7.07;2.70;;;;;;;5.77;100.00;99418.97;5415975;26;20598;-77
2024/04/17 04:29:59;;;;;;;3.87;2.50;;;;;;;5.75;100.00;99424.16;5411109;26;20240;-78
2024/04/17 04:32:27;;;;;;;6.37;3.20;;;;;;;5.67;100.00;99423.44;5417960;26;20266;-80
2024/04/17 04:34:55;;;;;;;6.60;2.73;;;;;;;5.62;100.00;99411.44;5417940;26;20256;-77
2024/04/17 04:37:25;;;;;;;7.13;2.63;;;;;;;5.64;100.00;99400.16;5418919;26;20242;-79
2024/04/17 04:39:51;;;;;;;6.53;3.13;;;;;;;5.54;100.00;99412.38;5417399;26;20235;-80
2024/04/17 04:42:18;;;;;;;14.07;2.73;;;;;;;5.70;100.00;99419.94;5417760;26;20345;-78
2024/04/17 04:44:45;;;;;;;5.07;2.37;;;;;;;5.64;100.00;99426.06;5417097;26;20274;-78
2024/04/17 04:47:14;;;;;;;6.87;2.70;;;;;;;5.72;100.00;99437.13;5417949;26;20240;-77
2024/04/17 04:49:40;;;;;;;9.47;2.87;;;;;;;5.70;100.00;99433.72;5416342;26;20275;-78
2024/04/17 04:52:10;;;;;;;7.23;3.27;;;;;;;5.73;100.00;99422.47;5416512;26;20237;-77
2024/04/17 04:54:35;;;;;;;4.73;2.77;;;;;;;5.86;100.00;99423.97;5415908;26;20236;-78
2024/04/17 04:57:03;;;;;;;3.93;2.70;;;;;;;6.10;100.00;99421.91;5416834;26;20783;-79
2024/04/17 04:59:29;;;;;;;7.43;2.73;;;;;;;6.09;99.41;99435.75;5416282;26;20283;-77
2024/04/17 05:01:58;;;;;;;5.87;2.53;;;;;;;6.15;100.00;99446.00;5417354;26;20235;-77
2024/04/17 05:04:23;;;;;;;6.27;3.90;;;;;;;6.34;99.76;99446.53;5416183;26;20332;-78
2024/04/17 05:06:51;;;;;;;6.90;3.40;;;;;;;6.41;98.43;99457.66;5416666;26;20722;-77
2024/04/17 05:09:19;;;;;;;5.67;3.10;;;;;;;6.48;99.23;99467.88;5414960;26;20251;-78
2024/04/17 05:11:47;;;;;;;18.17;4.20;;;;;;;6.39;98.69;99478.41;5420325;26;20241;-79
2024/04/17 05:14:13;;;;;;;5.83;2.73;;;;;;;6.27;99.60;99473.44;5417896;26;20224;-79
2024/04/17 05:16:41;;;;;;;4.53;2.93;;;;;;;6.41;99.89;99466.28;5418086;26;20275;-78
2024/04/17 05:19:06;;;;;;;7.10;2.80;;;;;;;6.39;99.21;99462.84;5416508;26;20590;-79
2024/04/17 05:21:34;;;;;;;4.97;3.33;;;;;;;6.33;100.00;99469.00;5417365;26;20245;-77
2024/04/17 05:23:59;;;;;;;7.53;3.50;;;;;;;6.34;100.00;99443.94;5417992;26;20236;-79
2024/04/17 05:26:30;;;;;;;9.20;3.43;;;;;;;6.36;100.00;99426.59;5418069;26;20267;-79
2024/04/17 05:28:56;;;;;;;6.97;3.27;;;;;;;6.68;100.00;99420.84;5419188;26;20238;-78
2024/04/17 05:31:24;;;;;;;12.50;3.57;;;;;;;6.47;100.00;99449.75;5418914;26;20237;-79
2024/04/17 05:33:49;;;;;;;8.87;2.80;;;;;;;6.31;100.00;99450.03;5419509;26;20244;-78
2024/04/17 05:36:17;;;;;;;7.77;3.47;;;;;;;6.33;100.00;99458.63;5417355;26;20239;-78
2024/04/17 05:38:43;;;;;;;13.90;4.87;;;;;;;6.51;99.24;99467.81;5417675;26;20236;-79
2024/04/17 05:41:11;;;;;;;6.83;3.87;;;;;;;6.28;99.15;99478.59;5417942;26;20287;-78
2024/04/17 05:43:39;;;;;;;7.83;3.37;;;;;;;6.15;99.44;99475.34;5417243;26;20270;-79
2024/04/17 05:46:07;;;;;;;6.30;2.70;;;;;;;6.10;100.00;99455.56;5417940;26;20366;-79
2024/04/17 05:48:32;;;;;;;8.17;4.13;;;;;;;6.20;100.00;99457.13;5415959;26;20359;-75
2024/04/17 05:51:00;;;;;;;6.33;3.13;;;;;;;6.16;100.00;99466.72;5415740;26;20256;-78
2024/04/17 05:53:26;;;;;;;6.60;4.27;;;;;;;6.19;100.00;99459.75;5416597;26;20235;-78
2024/04/17 05:55:54;;;;;;;5.77;3.27;;;;;;;6.00;100.00;99461.78;5417570;26;20265;-79
2024/04/17 05:58:19;;;;;;;6.77;4.23;;;;;;;6.29;100.00;99448.34;5418172;26;20237;-78
2024/04/17 06:00:50;;;;;;;11.50;3.57;;;;;;;6.51;100.00;99436.72;5416411;26;20734;-78
2024/04/17 06:03:15;;;;;;;9.63;3.10;;;;;;;6.53;100.00;99455.69;5417235;26;20304;-79
2024/04/17 06:05:43;;;;;;;6.17;4.43;;;;;;;6.73;100.00;99452.72;5417606;26;20332;-79
2024/04/17 06:08:09;;;;;;;5.90;3.33;;;;;;;7.01;100.00;99453.91;5417067;26;20669;-78
2024/04/17 06:10:37;;;;;;;6.37;3.50;;;;;;;7.06;98.28;99475.44;5418112;26;20231;-79
2024/04/17 06:13:05;;;;;;;8.30;3.37;;;;;;;7.04;96.69;99523.91;5416952;26;20233;-79
2024/04/17 06:15:30;;;;;;;5.87;3.00;;;;;;;7.11;96.18;99541.91;5416079;26;20283;-77
2024/04/17 06:18:01;;;;;;;7.93;2.90;;;;;;;7.20;97.06;99540.91;5417503;26;20332;-78
2024/04/17 06:20:29;;;;;;;5.70;2.90;;;;;;;7.14;95.37;99565.22;5416612;26;20244;-78
2024/04/17 06:22:55;;;;;;;6.47;3.47;;;;;;;6.98;95.05;99576.78;5415914;26;20687;-79
2024/04/17 06:25:23;;;;;;;9.27;3.13;;;;;;;7.02;95.85;99570.66;5415807;26;20313;-78
2024/04/17 06:27:48;;;;;;;7.60;3.03;;;;;;;6.72;96.86;99575.50;5416918;26;20758;-77
2024/04/17 06:30:16;;;;;;;5.47;2.63;;;;;;;6.52;98.76;99541.25;5414300;26;20240;-77
2024/04/17 06:32:42;;;;;;;12.00;2.73;;;;;;;6.61;100.00;99514.34;5415301;26;20233;-76
2024/04/17 06:35:12;;;;;;;6.37;2.97;;;;;;;6.56;100.00;99519.56;5415071;26;20279;-79
2024/04/17 06:37:37;;;;;;;6.87;2.90;;;;;;;6.92;99.50;99499.91;5415998;26;20232;-77
2024/04/17 06:40:06;;;;;;;6.20;2.30;;;;;;;7.14;97.67;99523.69;5415418;26;20239;-77
2024/04/17 06:42:32;;;;;;;7.07;2.87;;;;;;;7.14;96.25;99559.19;5417045;26;20229;-78
2024/04/17 06:45:01;;;;;;;8.87;2.10;;;;;;;7.04;95.01;99575.81;5416441;26;20268;-78
2024/04/17 06:47:27;;;;;;;5.20;2.13;;;;;;;7.06;95.44;99579.25;5416434;26;20742;-79
2024/04/17 06:49:55;;;;;;;5.10;2.83;;;;;;;7.11;95.25;99587.78;5416949;26;20234;-78
2024/04/17 06:52:23;;;;;;;3.90;2.63;;;;;;;7.12;96.71;99582.56;5411145;26;20293;-78
2024/04/17 06:54:51;;;;;;;4.37;2.40;;;;;;;7.60;95.98;99567.78;5414027;26;20256;-77
2024/04/17 06:57:17;;;;;;;4.53;2.53;;;;;;;7.70;94.98;99575.34;5416821;26;20522;-76
2024/04/17 06:59:45;;;;;;;3.93;2.10;;;;;;;7.96;93.84;99594.72;5415055;26;20240;-79
2024/04/17 07:02:10;;;;;;;4.77;2.03;;;;;;;8.24;92.07;99617.50;5416323;26;20283;-77
2024/04/17 07:04:38;;;;;;;3.77;2.17;;;;;;;8.29;90.74;99654.66;5415637;26;20237;-77
2024/04/17 07:07:04;;;;;;;4.30;1.70;;;;;;;8.20;90.50;99683.44;5416438;26;20234;-79
2024/04/17 07:09:35;;;;;;;8.73;3.20;;;;;;;7.81;89.97;99711.94;5416679;26;20291;-79
2024/04/17 07:12:00;;;;;;;15.07;2.90;;;;;;;8.07;90.08;99704.50;5419593;26;20307;-81
2024/04/17 07:14:28;;;;;;;5.23;2.00;;;;;;;8.25;90.16;99715.41;5418674;26;21079;-79
2024/04/17 07:16:53;;;;;;;4.67;2.00;;;;;;;7.94;90.30;99729.88;5418972;26;20253;-77
2024/04/17 07:19:24;;;;;;;6.80;2.57;;;;;;;7.40;89.81;99742.16;5416943;26;20240;-80
2024/04/17 07:21:50;;;;;;;6.07;2.33;;;;;;;7.23;92.57;99698.31;5415871;26;20235;-78
2024/04/17 07:24:18;;;;;;;7.37;3.00;;;;;;;7.45;92.53;99685.78;5416083;26;20235;-80
2024/04/17 07:26:46;;;;;;;3.73;2.17;;;;;;;7.74;92.34;99680.91;5419030;26;20317;-80
2024/04/17 07:29:13;;;;;;;7.13;2.73;;;;;;;7.95;91.73;99671.84;5418816;26;20244;-80
2024/04/17 07:31:39;;;;;;;4.43;2.10;;;;;;;8.09;91.21;99684.53;5418893;26;20232;-79
2024/04/17 07:34:07;;;;;;;5.40;2.20;;;;;;;8.18;91.32;99687.81;5417143;26;20240;-78
2024/04/17 07:36:32;;;;;;;6.87;2.90;;;;;;;8.19;90.63;99692.16;5419265;26;20236;-79
2024/04/17 07:39:00;;;;;;;5.57;2.27;;;;;;;8.39;90.61;99696.91;5418378;26;20240;-79
2024/04/17 07:41:26;;;;;;;4.30;2.50;;;;;;;8.41;88.79;99723.75;5421363;26;20244;-81
2024/04/17 07:43:57;;;;;;;5.27;2.47;;;;;;;8.48;87.67;99762.63;5423855;26;20345;-79
2024/04/17 07:46:23;;;;;;;3.60;2.20;;;;;;;8.35;87.66;99784.53;5420900;26;20752;-78
2024/04/17 07:48:51;;;;;;;4.57;2.53;;;;;;;8.54;87.59;99778.09;5421823;26;20265;-80
2024/04/17 07:51:17;;;;;;;10.13;2.30;;;;;;;8.37;89.28;99768.91;5421928;26;20282;-79
2024/04/17 07:53:45;;;;;;;5.63;2.50;;;;;;;8.38;88.88;99750.66;5422273;26;20754;-80
2024/04/17 07:56:10;;;;;;;4.43;2.57;;;;;;;8.42;87.99;99764.47;5424349;26;20251;-80
2024/04/17 07:58:38;;;;;;;4.60;2.80;;;;;;;8.39;87.83;99777.53;5419971;26;20241;-79
2024/04/17 08:01:06;;;;;;;6.63;2.80;;;;;;;8.49;87.64;99784.28;5421063;26;20723;-78
2024/04/17 08:03:34;;;;;;;4.43;2.80;;;;;;;8.58;87.18;99784.06;5420534;26;20232;-79
2024/04/17 08:06:00;;;;;;;8.27;3.67;;;;;;;8.46;87.10;99803.41;5420803;26;20780;-79
2024/04/17 08:08:28;;;;;;;4.07;2.80;;;;;;;8.32;86.64;99811.47;5421870;26;20241;-79
2024/04/17 08:10:54;;;;;;;4.57;2.47;;;;;;;8.44;86.48;99818.16;5422321;26;20240;-80
2024/04/17 08:13:22;;;;;;;6.90;2.70;;;;;;;8.42;87.33;99814.75;5425500;26;20263;-79
2024/04/17 08:15:51;;;;;;;7.17;2.83;;;;;;;8.48;86.94;99813.78;5423058;26;20237;-79
2024/04/17 08:18:22;;;;;;;5.53;2.53;;;;;;;8.61;86.84;99809.19;5423016;26;20282;-80
2024/04/17 08:20:54;;;;;;;3.47;2.00;;;;;;;8.65;86.53;99818.63;5408845;26;20243;-79
2024/04/17 08:23:22;;;;;;;6.37;3.27;;;;;;;8.53;86.62;99812.78;5473003;21;20272;-81
2024/04/17 08:25:47;;;;;;;5.50;2.20;;;;;;;8.55;87.13;99811.00;5455195;26;20579;-81
2024/04/17 08:28:38;;;;;;;6.43;2.80;;;;;;;8.71;86.94;99806.34;5456554;26;20294;-80
2024/04/17 08:31:04;;;;;;;4.60;2.70;;;;;;;8.97;87.32;99804.06;5446729;26;20598;-80
2024/04/17 08:33:35;;;;;;;5.17;2.97;;;;;;;9.01;86.00;99821.31;5434488;26;20287;-81
2024/04/17 08:36:00;;;;;;;5.43;2.50;;;;;;;9.19;84.86;99841.72;5419843;26;20312;-81
2024/04/17 08:38:29;;;;;;;4.23;3.30;;;;;;;9.34;83.50;99870.03;5419308;26;20745;-81
2024/04/17 08:40:54;;;;;;;3.80;3.47;;;;;;;9.45;82.42;99908.00;5420717;26;20236;-80
2024/04/17 08:43:26;;;;;;;4.17;3.77;;;;;;;9.56;81.67;99936.41;5419930;26;20616;-79
2024/04/17 08:45:53;;;;;;;5.90;3.90;;;;;;;9.58;80.01;99974.56;5419010;26;20276;-81
2024/04/17 08:48:22;;;;;;;5.20;3.97;;;;;;;9.63;79.42;100010.94;5417793;26;20249;-79
2024/04/17 08:50:51;;;;;;;4.20;3.77;;;;;;;9.70;78.79;100029.00;5418981;26;20233;-80
2024/04/17 08:53:20;;;;;;;4.00;3.70;;;;;;;9.73;77.92;100060.25;5418236;26;20286;-80
2024/04/17 08:55:46;;;;;;;4.87;3.57;;;;;;;9.77;77.43;100087.06;5419727;26;20603;-80
2024/04/17 08:58:15;;;;;;;4.47;3.27;;;;;;;9.80;76.38;100100.06;5421725;26;20644;-79
2024/04/17 09:00:41;;;;;;;4.23;2.87;;;;;;;9.84;76.21;100124.31;5420006;26;20861;-80
2024/04/17 09:03:11;;;;;;;4.33;2.60;;;;;;;9.89;76.31;100138.97;5418641;26;20323;-80
2024/04/17 09:05:36;;;;;;;3.60;2.60;;;;;;;9.99;75.30;100154.41;5418877;26;20732;-79
2024/04/17 09:08:10;;;;;;;2.57;2.37;;;;;;;10.06;74.74;100176.88;5417962;26;20236;-80
2024/04/17 09:10:36;;;;;;;3.00;2.80;;;;;;;10.15;74.75;100184.50;5420045;26;20958;-79
2024/04/17 09:13:05;;;;;;;3.60;3.00;;;;;;;10.20;74.21;100200.88;5417508;26;20244;-81
2024/04/17 09:15:30;;;;;;;3.20;2.90;;;;;;;10.19;73.32;100227.88;5414386;26;20228;-81
2024/04/17 09:18:00;;;;;;;4.80;2.60;;;;;;;10.19;72.70;100237.44;5415817;26;20289;-80
2024/04/17 09:20:42;;;;;;;2.60;2.40;;;;;;;10.14;72.71;100243.59;5408204;26;20292;-81
2024/04/17 09:26:42;;;;;;;3.33;2.57;;;;;;;10.16;73.58;100227.94;5309820;26;20249;-81
2024/04/17 09:29:07;;;;;;;2.53;2.43;;;;;;;10.21;73.95;100231.31;5359311;26;20276;-80
2024/04/17 09:31:49;;;;;;;2.67;2.47;;;;;;;10.27;74.35;100228.59;5420862;26;20590;-80
2024/04/17 09:34:16;;;;;;;4.00;3.30;;;;;;;10.41;73.70;100220.50;5418532;26;20235;-81
2024/04/17 09:37:00;;;;;;;4.17;3.10;;;;;;;10.55;72.48;100232.38;5419865;26;20237;-81
2024/04/17 09:42:59;;;;;;;4.43;3.87;;;;;;;10.73;72.73;100245.88;5387909;26;20354;-82
2024/04/17 09:45:27;;;;;;;6.30;5.67;;;;;;;10.84;73.31;100239.53;5420093;26;20573;-81
2024/04/17 09:47:58;;;;;;;6.03;5.40;;;;;;;10.86;73.12;100248.19;5419817;26;20241;-81
2024/04/17 09:50:28;;;;;;;5.43;4.93;;;;;;;10.87;72.72;100244.69;5418875;26;20235;-81
2024/04/17 09:59:59;;;;;;;5.47;4.50;;;;;;;11.05;71.13;100248.63;5291114;26;20368;-81
2024/04/17 10:03:06;;;;;;;4.33;3.93;;;;;;;11.13;71.84;100259.75;5309092;26;20661;-81
2024/04/17 10:09:05;;;;;;;5.30;3.97;;;;;;;11.50;72.44;100230.09;5145476;26;20235;-78
2024/04/17 10:11:31;;;;;;;5.97;3.97;;;;;;;11.65;71.88;100228.81;5309204;27;20275;-79
2024/04/17 10:16:44;;;;;;;5.50;4.63;;;;;;;11.91;70.99;100265.63;5279420;26;20246;-82
2024/04/17 10:19:11;;;;;;;4.30;3.90;;;;;;;12.08;70.81;100257.28;5311627;27;20294;-79
2024/04/17 10:21:39;;;;;;;6.03;3.80;;;;;;;12.12;67.73;100298.16;5349230;26;20273;-81
2024/04/17 10:24:08;;;;;;;3.80;3.40;;;;;;;12.16;67.86;100329.50;5417505;26;20265;-80
2024/04/17 10:27:06;;;;;;;3.60;3.10;;;;;;;12.25;69.60;100339.69;5417816;26;20238;-80
2024/04/17 10:29:31;;;;;;;5.27;3.60;;;;;;;12.31;67.31;100337.78;5418646;26;20243;-80
2024/04/17 10:32:05;;;;;;;5.90;3.83;;;;;;;12.37;66.97;100344.63;5417087;26;20806;-81
2024/04/17 10:34:42;;;;;;;3.60;2.90;;;;;;;12.35;68.41;100356.88;5417973;26;20235;-79
2024/04/17 10:37:14;;;;;;;4.87;2.60;;;;;;;11.25;62.18;100449.31;5418285;26;20231;-79
2024/04/17 10:39:41;;;;;;;2.67;2.50;;;;;;;11.26;63.66;100469.34;5417451;26;20234;-80
2024/04/17 10:42:10;;;;;;;3.20;2.10;;;;;;;11.53;66.29;100453.06;5418413;26;20246;-81
2024/04/17 10:44:44;;;;;;;6.47;3.00;;;;;;;11.84;65.93;100412.25;5417465;26;20234;-81
2024/04/17 10:47:23;;;;;;;3.77;3.10;;;;;;;11.52;64.56;100437.41;4666251;26;10000588;-79
2024/04/17 10:49:56;;;;;;;3.97;2.60;;;;;;;11.54;64.68;100448.69;5413570;26;20261;-80
2024/04/17 10:52:24;;;;;;;4.27;2.67;;;;;;;11.60;62.32;100463.38;5414248;26;20335;-79
2024/04/17 10:54:53;;;;;;;3.43;2.63;;;;;;;11.84;64.07;100475.03;5413029;26;20391;-80
2024/04/17 10:57:24;;;;;;;3.73;2.77;;;;;;;12.08;65.20;100455.28;5413927;26;20619;-79
2024/04/17 10:59:50;;;;;;;4.30;3.07;;;;;;;12.18;65.48;100434.97;5413644;26;20238;-80
2024/04/17 11:02:21;;;;;;;4.87;3.17;;;;;;;12.23;65.87;100426.13;5412811;26;20241;-80
2024/04/17 11:04:47;;;;;;;2.73;2.50;;;;;;;12.24;65.57;100417.34;5413224;26;20238;-79
2024/04/17 11:07:15;;;;;;;4.80;2.70;;;;;;;12.21;66.13;100409.59;5412628;26;20845;-78
2024/04/17 11:09:42;;;;;;;4.07;2.30;;;;;;;12.14;67.91;100387.09;5412161;26;20808;-80
2024/04/17 11:12:16;;;;;;;2.60;2.40;;;;;;;12.13;67.80;100356.59;5412456;26;20238;-80
2024/04/17 11:14:42;;;;;;;2.87;2.57;;;;;;;12.08;68.10;100348.00;5412267;26;20275;-80
2024/04/17 11:17:11;;;;;;;5.07;2.57;;;;;;;12.06;67.93;100326.25;5414251;26;20238;-81
2024/04/17 11:19:43;;;;;;;3.33;2.50;;;;;;;12.03;68.65;100313.25;5416148;26;20807;-80
2024/04/17 11:22:12;;;;;;;3.03;2.50;;;;;;;11.99;69.21;100296.81;5416552;26;20297;-80
2024/04/17 11:24:44;;;;;;;3.23;2.60;;;;;;;11.97;69.32;100288.16;5415655;26;20318;-80
2024/04/17 11:27:12;;;;;;;5.10;2.50;;;;;;;11.90;69.88;100292.66;5416846;26;20241;-80
2024/04/17 11:29:38;;;;;;;4.13;3.37;;;;;;;11.76;69.54;100309.59;5415997;26;20722;-80
2024/04/17 11:32:07;;;;;;;4.90;3.30;;;;;;;10.84;66.78;100346.59;5418896;26;20241;-79
2024/04/17 11:34:32;;;;;;;6.87;3.80;;;;;;;8.79;74.38;100359.63;5421339;26;20811;-81
2024/04/17 11:37:07;;;;;;;8.97;5.97;;;;;;;8.67;75.80;100230.56;5426723;26;20290;-78
2024/04/17 11:39:50;;;;;;;11.87;7.67;;;;;;;8.85;74.49;100179.97;5426919;26;20262;-82
2024/04/17 11:42:18;;;;;;;5.87;4.77;;;;;;;8.90;73.89;100178.13;5422838;26;20357;-79
2024/04/17 11:44:47;;;;;;;7.60;4.73;;;;;;;8.85;73.62;100178.22;5425031;26;20234;-81
2024/04/17 11:56:06;;;;;;;4.43;4.03;;;;;;;8.84;75.89;100121.84;5853211;21;20271;-81
2024/04/17 11:58:31;;;;;;;4.33;3.97;;;;;;;8.82;76.76;100107.13;5416962;26;20245;-79
2024/04/17 12:01:01;;;;;;;5.70;3.53;;;;;;;8.84;77.61;100079.34;5416594;26;20251;-80
2024/04/17 12:03:30;;;;;;;3.73;3.43;;;;;;;8.85;77.73;100053.28;5415972;26;20298;-79
2024/04/17 12:05:58;;;;;;;5.70;3.50;;;;;;;8.89;78.40;100038.47;5415417;26;20241;-79
2024/04/17 12:08:24;;;;;;;3.40;3.10;;;;;;;8.91;78.62;100026.28;5415187;26;20264;-79